| time (UTC) | temp F | wind direction | speed MPH | gust MPH | rain 1hr in | rain 24hr in | rain mn in | humidity % | barometer mb |
| 20260507141209 | 55 | 225 | 10.0 | 13.0 | 0.00 | 0.00 | 0.00 | 64 | 1014.7 |
| 20260507140209 | 54 | 220 | 5.0 | 13.0 | 0.00 | 0.00 | 0.00 | 65 | 1014.8 |
| 20260507133205 | 52 | 245 | 0.0 | 12.0 | 0.00 | 0.00 | 0.00 | 70 | 1014.9 |
| 20260507121158 | 47 | 188 | 0.0 | 10.0 | 0.00 | 0.00 | 0.00 | 82 | 1014.5 |
| 20260507120156 | 46 | 214 | 7.0 | 10.0 | 0.00 | 0.00 | 0.00 | 83 | 1014.6 |
| 20260507115156 | 46 | 212 | 0.0 | 6.0 | 0.00 | 0.00 | 0.00 | 85 | 1014.8 |
| 20260507113154 | 44 | 202 | 0.0 | 4.0 | 0.00 | 0.00 | 0.00 | 87 | 1015.0 |
| 20260507103147 | 44 | 202 | 0.0 | 4.0 | 0.00 | 0.00 | 0.00 | 87 | 1015.2 |
| 20260507102146 | 44 | 215 | 0.0 | 4.0 | 0.00 | 0.00 | 0.00 | 87 | 1015.3 |
| 20260507101146 | 44 | 202 | 0.0 | 4.0 | 0.00 | 0.00 | 0.00 | 86 | 1015.3 |
| 20260507094142 | 44 | 202 | 0.0 | 4.0 | 0.00 | 0.00 | 0.00 | 85 | 1015.6 |
| 20260507093142 | 44 | 233 | 0.0 | 0.0 | 0.00 | 0.00 | 0.00 | 84 | 1015.7 |
| 20260507092141 | 44 | 202 | 0.0 | 0.0 | 0.00 | 0.00 | 0.00 | 84 | 1015.6 |
| 20260507091140 | 45 | 205 | 0.0 | 0.0 | 0.00 | 0.00 | 0.00 | 83 | 1015.6 |
| 20260507081133 | 45 | 202 | 0.0 | 0.0 | 0.00 | 0.00 | 0.00 | 80 | 1016.0 |
| 20260507074130 | 44 | 208 | 0.0 | 0.0 | 0.00 | 0.00 | 0.00 | 78 | 1016.2 |
| 20260507072128 | 45 | 212 | 0.0 | 0.0 | 0.00 | 0.00 | 0.00 | 76 | 1016.5 |
| 20260507071127 | 45 | 216 | 0.0 | 0.0 | 0.00 | 0.00 | 0.00 | 75 | 1016.5 |
| 20260507070126 | 46 | 245 | 0.0 | 0.0 | 0.00 | 0.00 | 0.00 | 74 | 1016.7 |
| 20260507062122 | 47 | 225 | 0.0 | 0.0 | 0.00 | 0.00 | 0.00 | 70 | 1016.9 |
| 20260507055119 | 48 | 212 | 0.0 | 0.0 | 0.00 | 0.00 | 0.00 | 67 | 1017.1 |
| 20260507053117 | 48 | 202 | 0.0 | 0.0 | 0.00 | 0.00 | 0.00 | 64 | 1017.2 |
| 20260507052116 | 48 | 206 | 0.0 | 0.0 | 0.00 | 0.00 | 0.00 | 63 | 1017.1 |
| 20260507050114 | 49 | 212 | 0.0 | 0.0 | 0.00 | 0.00 | 0.00 | 60 | 1017.1 |
| 20260507042111 | 48 | 202 | 0.0 | 22.0 | 0.00 | 0.00 | 0.00 | 56 | 1017.1 |
| 20260507041109 | 47 | 202 | 0.0 | 22.0 | 0.00 | 0.00 | 0.00 | 59 | 1017.1 |
| 20260507040108 | 47 | 189 | 0.0 | 22.0 | 0.00 | 0.00 | 0.00 | 60 | 1017.1 |
| 20260507035108 | 47 | 180 | 0.0 | 22.0 | 0.00 | 0.00 | 0.00 | 59 | 1017.2 |
| 20260507034106 | 47 | 158 | 0.0 | 22.0 | 0.00 | 0.00 | 0.00 | 59 | 1017.2 |
| 20260507033105 | 47 | 158 | 0.0 | 22.0 | 0.00 | 0.00 | 0.00 | 58 | 1017.3 |
| 20260507031103 | 47 | 180 | 0.0 | 22.0 | 0.00 | 0.00 | 0.00 | 59 | 1017.2 |
| 20260507020056 | 49 | 202 | 0.0 | 22.0 | 0.00 | 0.00 | 0.00 | 52 | 1016.7 |
| 20260507014054 | 51 | 315 | 0.0 | 22.0 | 0.00 | 0.00 | 0.00 | 45 | 1016.6 |
| 20260507013053 | 52 | 202 | 0.0 | 22.0 | 0.00 | 0.00 | 0.00 | 42 | 1016.6 |
| 20260507012052 | 53 | 202 | 0.0 | 22.0 | 0.00 | 0.00 | 0.00 | 42 | 1016.5 |
| 20260507011051 | 55 | 202 | 0.0 | 22.0 | 0.00 | 0.00 | 0.00 | 40 | 1016.5 |